createdAt,value
2022-10-26T00:00:45.766Z,7.57
2022-10-26T00:03:12.407Z,7.70
2022-10-26T00:05:38.990Z,7.30
2022-10-26T00:08:05.841Z,7.78
2022-10-26T00:10:35.255Z,7.22
2022-10-26T00:13:01.891Z,7.53
2022-10-26T00:15:28.804Z,6.73
2022-10-26T00:17:55.367Z,7.50
2022-10-26T00:20:21.790Z,7.43
2022-10-26T00:22:48.216Z,7.80
2022-10-26T00:25:14.860Z,7.18
2022-10-26T00:27:41.221Z,6.90
2022-10-26T00:30:08.256Z,6.93
2022-10-26T00:32:34.912Z,6.55
2022-10-26T00:35:10.568Z,6.50
2022-10-26T00:37:48.232Z,6.50
2022-10-26T00:40:15.009Z,6.33
2022-10-26T00:42:41.380Z,6.22
2022-10-26T00:45:20.990Z,6.20
2022-10-26T00:47:50.956Z,6.25
2022-10-26T00:50:34.704Z,5.90
2022-10-26T00:53:04.569Z,6.20
2022-10-26T00:55:36.117Z,5.82
2022-10-26T00:58:05.270Z,5.75
2022-10-26T01:00:31.858Z,6.32
2022-10-26T01:03:01.679Z,6.28
2022-10-26T01:05:29.021Z,5.57
2022-10-26T01:07:55.571Z,5.72
2022-10-26T01:10:22.735Z,5.78
2022-10-26T01:12:49.298Z,5.63
2022-10-26T01:15:16.180Z,5.35
2022-10-26T01:17:54.819Z,5.50
2022-10-26T01:20:33.500Z,5.30
2022-10-26T01:23:11.984Z,5.60
2022-10-26T01:25:51.816Z,5.55
2022-10-26T01:28:37.606Z,5.53
2022-10-26T01:31:08.845Z,6.00
2022-10-26T01:33:42.751Z,5.22
2022-10-26T01:36:40.413Z,5.47
2022-10-26T01:39:40.218Z,5.68
2022-10-26T01:42:09.805Z,5.07
2022-10-26T01:44:43.132Z,5.73
2022-10-26T01:47:15.406Z,5.30
2022-10-26T01:49:47.085Z,6.07
2022-10-26T01:52:13.575Z,5.60
2022-10-26T01:54:39.991Z,5.60
2022-10-26T01:57:09.899Z,5.30
2022-10-26T01:59:42.416Z,5.70
2022-10-26T02:02:20.961Z,5.45
2022-10-26T02:04:50.265Z,5.70
2022-10-26T02:07:27.639Z,6.18
2022-10-26T02:10:05.018Z,5.47
2022-10-26T02:12:59.360Z,5.60
2022-10-26T02:15:53.515Z,5.80
2022-10-26T02:18:51.012Z,5.53
2022-10-26T02:21:24.507Z,5.88
2022-10-26T02:23:52.554Z,5.50
2022-10-26T02:26:24.168Z,5.38
2022-10-26T02:28:53.847Z,5.60
2022-10-26T02:31:21.011Z,6.00
2022-10-26T02:33:51.637Z,5.22
2022-10-26T02:36:24.621Z,5.23
2022-10-26T02:38:53.068Z,5.45
2022-10-26T02:41:21.698Z,5.18
2022-10-26T02:43:55.492Z,5.60
2022-10-26T02:46:25.283Z,5.60
2022-10-26T02:48:51.750Z,5.40
2022-10-26T02:51:25.069Z,5.50
2022-10-26T02:53:59.137Z,5.57
2022-10-26T02:56:36.520Z,5.03
2022-10-26T02:59:07.914Z,5.05
2022-10-26T03:01:35.522Z,5.13
2022-10-26T03:04:02.281Z,5.30
2022-10-26T03:06:28.672Z,5.10
2022-10-26T03:08:55.151Z,5.28
2022-10-26T03:11:21.591Z,5.60
2022-10-26T03:13:48.018Z,5.23
2022-10-26T03:16:14.455Z,5.07
2022-10-26T03:18:40.825Z,5.40
2022-10-26T03:21:07.249Z,5.18
2022-10-26T03:23:33.616Z,5.40
2022-10-26T03:26:00.234Z,5.10
2022-10-26T03:28:27.212Z,4.85
2022-10-26T03:30:53.644Z,5.65
2022-10-26T03:33:21.548Z,4.90
2022-10-26T03:35:59.757Z,5.22
2022-10-26T03:38:26.256Z,5.00
2022-10-26T03:40:52.770Z,4.95
2022-10-26T03:43:19.296Z,5.15
2022-10-26T03:45:45.747Z,4.43
2022-10-26T03:48:12.572Z,4.95
2022-10-26T03:50:39.086Z,5.03
2022-10-26T03:53:06.130Z,4.93
2022-10-26T03:55:32.673Z,4.97
2022-10-26T03:57:59.071Z,4.95
2022-10-26T04:00:25.592Z,4.75
2022-10-26T04:02:59.833Z,5.00
2022-10-26T04:05:28.351Z,5.07
2022-10-26T04:08:00.398Z,5.20
2022-10-26T04:10:27.946Z,4.90
2022-10-26T04:12:55.237Z,4.97
2022-10-26T04:15:22.315Z,5.43
2022-10-26T04:17:49.038Z,5.00
2022-10-26T04:20:15.776Z,5.18
2022-10-26T04:22:42.136Z,4.80
2022-10-26T04:25:08.850Z,5.55
2022-10-26T04:27:35.242Z,4.90
2022-10-26T04:30:01.656Z,5.13
2022-10-26T04:32:28.035Z,4.97
2022-10-26T04:34:54.391Z,5.40
2022-10-26T04:37:20.761Z,5.00
2022-10-26T04:39:47.149Z,5.27
2022-10-26T04:42:13.565Z,4.95
2022-10-26T04:44:39.949Z,5.07
2022-10-26T04:47:06.321Z,5.30
2022-10-26T04:49:32.701Z,5.15
2022-10-26T04:51:59.093Z,5.23
2022-10-26T04:54:25.472Z,4.75
2022-10-26T04:56:51.891Z,4.78
2022-10-26T04:59:18.309Z,4.50
2022-10-26T05:01:44.803Z,4.65
2022-10-26T05:04:11.411Z,5.10
2022-10-26T05:06:37.797Z,4.90
2022-10-26T05:09:04.543Z,4.60
2022-10-26T05:11:30.987Z,4.60
2022-10-26T05:13:57.342Z,4.60
2022-10-26T05:16:23.768Z,4.90
2022-10-26T05:18:50.237Z,4.60
2022-10-26T05:21:17.510Z,4.60
2022-10-26T05:23:43.897Z,4.10
2022-10-26T05:26:10.269Z,4.30
2022-10-26T05:28:36.676Z,4.40
2022-10-26T05:31:03.083Z,4.38
2022-10-26T05:33:29.465Z,4.22
2022-10-26T05:35:55.898Z,4.00
2022-10-26T05:38:22.388Z,4.28
2022-10-26T05:40:53.270Z,4.43
2022-10-26T05:43:23.700Z,4.35
2022-10-26T05:45:51.162Z,4.10
2022-10-26T05:48:17.612Z,4.20
2022-10-26T05:50:44.939Z,4.05
2022-10-26T05:53:11.527Z,4.20
2022-10-26T05:55:38.393Z,3.83
2022-10-26T05:58:09.426Z,3.70
2022-10-26T06:00:37.004Z,4.15
2022-10-26T06:03:21.895Z,3.85
2022-10-26T06:05:52.769Z,4.07
2022-10-26T06:08:20.467Z,4.22
2022-10-26T06:10:47.696Z,4.07
2022-10-26T06:13:14.690Z,3.80
2022-10-26T06:16:02.697Z,3.90
2022-10-26T06:18:34.932Z,3.83
2022-10-26T06:21:28.426Z,3.60
2022-10-26T06:24:24.426Z,3.78
2022-10-26T06:27:28.309Z,3.92
2022-10-26T06:30:09.424Z,4.32
2022-10-26T06:32:36.532Z,3.80
2022-10-26T06:35:31.714Z,3.85
2022-10-26T06:38:02.149Z,3.47
2022-10-26T06:40:32.167Z,3.88
2022-10-26T06:42:59.935Z,3.92
2022-10-26T06:45:26.728Z,3.80
2022-10-26T06:48:16.629Z,3.88
2022-10-26T06:51:03.418Z,3.95
2022-10-26T06:53:37.419Z,4.18
2022-10-26T06:56:04.336Z,3.85
2022-10-26T06:58:34.863Z,3.70
2022-10-26T07:01:01.934Z,4.03
2022-10-26T07:03:28.359Z,3.53
2022-10-26T07:05:54.755Z,3.90
2022-10-26T07:08:21.235Z,3.70
2022-10-26T07:10:47.681Z,3.57
2022-10-26T07:13:14.278Z,3.38
2022-10-26T07:15:40.755Z,3.30
2022-10-26T07:18:07.909Z,3.38
2022-10-26T07:20:39.397Z,3.25
2022-10-26T07:23:07.091Z,3.60
2022-10-26T07:25:34.878Z,3.58
2022-10-26T07:28:01.981Z,3.40
2022-10-26T07:30:30.247Z,3.15
2022-10-26T07:33:23.186Z,3.40
2022-10-26T07:35:49.723Z,3.00
2022-10-26T07:38:16.098Z,3.30
2022-10-26T07:40:42.522Z,3.20
2022-10-26T07:43:08.927Z,3.50
2022-10-26T07:45:35.358Z,3.50
2022-10-26T07:48:01.762Z,3.17
2022-10-26T07:50:28.426Z,3.20
2022-10-26T07:52:54.789Z,3.20
2022-10-26T07:55:21.265Z,3.42
2022-10-26T07:57:51.011Z,3.60
2022-10-26T08:00:21.075Z,3.50
2022-10-26T08:02:47.527Z,3.13
2022-10-26T08:05:14.009Z,2.90
2022-10-26T08:07:41.950Z,3.00
2022-10-26T08:10:08.773Z,3.20
2022-10-26T08:12:35.263Z,3.10
2022-10-26T08:15:01.622Z,3.10
2022-10-26T08:17:29.149Z,3.30
2022-10-26T08:19:55.616Z,3.20
2022-10-26T08:22:22.063Z,3.20
2022-10-26T08:24:48.454Z,3.33
2022-10-26T08:27:15.034Z,3.10
2022-10-26T08:29:42.088Z,3.20
2022-10-26T08:32:08.610Z,3.40
2022-10-26T08:34:35.126Z,3.10
2022-10-26T08:37:01.601Z,3.17
2022-10-26T08:39:27.979Z,3.47
2022-10-26T08:42:19.410Z,2.83
2022-10-26T08:44:48.301Z,3.10
2022-10-26T08:47:24.821Z,3.10
2022-10-26T08:50:02.106Z,3.20
2022-10-26T08:52:56.204Z,3.17
2022-10-26T08:55:29.101Z,3.20
2022-10-26T08:57:56.407Z,3.10
2022-10-26T09:00:25.313Z,3.20
2022-10-26T09:02:53.053Z,3.60
2022-10-26T09:05:27.021Z,3.47
2022-10-26T09:08:22.522Z,3.40
2022-10-26T09:11:09.417Z,3.75
2022-10-26T09:13:40.878Z,3.60
2022-10-26T09:16:24.476Z,3.67
2022-10-26T09:19:01.846Z,3.78
2022-10-26T09:21:35.365Z,3.47
2022-10-26T09:24:25.655Z,3.40
2022-10-26T09:26:58.706Z,3.50
2022-10-26T09:29:36.092Z,3.73
2022-10-26T09:32:04.260Z,3.70
2022-10-26T09:34:48.452Z,3.20
2022-10-26T09:37:25.508Z,3.20
2022-10-26T09:40:08.335Z,3.17
2022-10-26T09:42:47.037Z,3.60
2022-10-26T09:45:20.311Z,3.92
2022-10-26T09:47:51.308Z,3.95
2022-10-26T09:50:36.174Z,3.90
2022-10-26T09:53:03.839Z,4.63
2022-10-26T09:55:33.143Z,5.00
2022-10-26T09:58:03.272Z,5.93
2022-10-26T10:00:30.484Z,7.30
2022-10-26T10:02:58.638Z,8.25
2022-10-26T10:05:49.720Z,7.68
2022-10-26T10:08:19.257Z,7.67
2022-10-26T10:11:01.935Z,8.07
2022-10-26T10:13:38.203Z,7.72
2022-10-26T10:16:10.340Z,7.35
2022-10-26T10:18:37.874Z,6.07
2022-10-26T10:21:05.264Z,5.60
2022-10-26T10:23:37.677Z,5.60
2022-10-26T10:26:07.440Z,5.18
2022-10-26T10:28:35.044Z,5.18
2022-10-26T10:31:05.339Z,4.63
2022-10-26T10:33:33.761Z,5.00
2022-10-26T10:36:00.992Z,5.35
2022-10-26T10:38:27.663Z,5.30
2022-10-26T10:40:57.854Z,5.00
2022-10-26T10:43:25.691Z,4.90
2022-10-26T10:45:57.177Z,4.83
2022-10-26T10:48:28.286Z,5.15
2022-10-26T10:50:58.504Z,5.40
2022-10-26T10:53:45.085Z,4.80
2022-10-26T10:56:47.291Z,5.18
2022-10-26T10:59:38.278Z,5.07
2022-10-26T11:02:13.988Z,5.10
2022-10-26T11:04:55.366Z,4.80
2022-10-26T11:07:24.102Z,4.57
2022-10-26T11:12:53.798Z,4.90
2022-10-26T11:15:24.727Z,5.00
2022-10-26T11:18:08.410Z,4.70
2022-10-26T11:20:42.976Z,4.45
2022-10-26T11:23:19.165Z,4.30
2022-10-26T11:26:00.621Z,4.30
2022-10-26T11:28:42.114Z,3.15
2022-10-26T11:31:16.280Z,3.20
2022-10-26T11:34:13.319Z,3.10
2022-10-26T11:36:44.194Z,2.90
2022-10-26T11:39:16.264Z,2.90
2022-10-26T11:41:47.179Z,2.83
2022-10-26T11:44:29.484Z,3.03
2022-10-26T11:47:02.389Z,2.70
2022-10-26T11:49:50.413Z,2.55
2022-10-26T11:52:24.967Z,2.30
2022-10-26T11:54:56.437Z,2.70
2022-10-26T11:57:25.662Z,2.22
2022-10-26T12:00:02.402Z,2.30
2022-10-26T12:02:28.892Z,2.40
2022-10-26T12:05:33.035Z,2.40
2022-10-26T12:08:06.237Z,2.40
2022-10-26T12:10:35.274Z,2.20
2022-10-26T12:13:24.890Z,2.33
2022-10-26T12:16:04.678Z,2.60
2022-10-26T12:18:54.985Z,2.00
2022-10-26T12:21:26.375Z,2.42
2022-10-26T12:23:54.343Z,1.98
2022-10-26T12:26:38.797Z,2.10
2022-10-26T12:29:05.170Z,2.42
2022-10-26T12:31:37.414Z,2.33
2022-10-26T12:34:10.275Z,2.28
2022-10-26T12:36:54.870Z,2.25
2022-10-26T12:39:35.677Z,2.13
2022-10-26T12:42:07.828Z,1.98
2022-10-26T12:44:45.358Z,2.03
2022-10-26T12:47:31.720Z,1.90
2022-10-26T12:49:59.191Z,2.28
2022-10-26T12:52:28.367Z,2.15
2022-10-26T12:55:07.335Z,2.00
2022-10-26T12:57:47.300Z,2.20
2022-10-26T13:00:17.718Z,2.00
2022-10-26T13:02:50.634Z,2.17
2022-10-26T13:05:29.255Z,2.22
2022-10-26T13:08:03.610Z,2.08
2022-10-26T13:10:30.389Z,1.70
2022-10-26T13:12:59.585Z,2.17
2022-10-26T13:15:39.235Z,2.03
2022-10-26T13:18:17.358Z,2.00
2022-10-26T13:21:07.933Z,1.88
2022-10-26T13:23:39.268Z,2.27
2022-10-26T13:26:11.551Z,2.10
2022-10-26T13:28:37.982Z,1.80
2022-10-26T13:31:11.164Z,2.10
2022-10-26T13:33:41.059Z,1.90
2022-10-26T13:36:18.184Z,1.83
2022-10-26T13:38:46.796Z,2.00
2022-10-26T13:41:30.456Z,2.03
2022-10-26T13:43:59.012Z,2.30
2022-10-26T13:46:27.507Z,2.08
2022-10-26T13:49:00.529Z,2.00
2022-10-26T13:51:39.844Z,1.90
2022-10-26T13:54:34.060Z,1.70
2022-10-26T13:57:37.933Z,1.80
2022-10-26T14:00:16.486Z,1.90
2022-10-26T14:02:43.633Z,1.87
2022-10-26T14:05:11.732Z,1.80
2022-10-26T14:07:50.488Z,1.50
2022-10-26T14:10:27.211Z,1.80
2022-10-26T14:12:54.163Z,1.80
2022-10-26T14:15:29.704Z,1.80
2022-10-26T14:17:57.467Z,1.80
2022-10-26T14:20:26.041Z,1.73
2022-10-26T14:22:52.687Z,1.90
2022-10-26T14:25:41.922Z,1.90
2022-10-26T14:28:27.668Z,1.73
2022-10-26T14:30:54.129Z,1.60
2022-10-26T14:33:27.471Z,1.60
2022-10-26T14:35:54.721Z,1.98
2022-10-26T14:38:25.860Z,2.10
2022-10-26T14:40:56.202Z,1.93
2022-10-26T14:43:24.800Z,1.75
2022-10-26T14:45:53.633Z,2.00
2022-10-26T14:48:28.048Z,1.70
2022-10-26T14:51:18.684Z,1.77
2022-10-26T14:53:50.755Z,2.77
2022-10-26T14:56:35.249Z,2.00
2022-10-26T14:59:12.070Z,1.88
2022-10-26T15:01:57.203Z,1.75
2022-10-26T15:04:35.893Z,1.80
2022-10-26T15:07:11.242Z,1.93
2022-10-26T15:09:39.012Z,1.85
2022-10-26T15:12:06.235Z,1.92
2022-10-26T15:14:34.131Z,1.85
2022-10-26T15:17:00.862Z,1.90
2022-10-26T15:19:27.910Z,1.87
2022-10-26T15:21:54.445Z,1.70
2022-10-26T15:24:20.872Z,2.15
2022-10-26T15:26:47.811Z,1.92
2022-10-26T15:29:37.009Z,2.10
2022-10-26T15:34:37.346Z,2.00
2022-10-26T15:37:03.915Z,2.00
2022-10-26T15:39:30.451Z,2.03
2022-10-26T15:41:56.917Z,2.13
2022-10-26T15:44:23.315Z,1.90
2022-10-26T15:46:50.080Z,2.00
2022-10-26T15:49:19.600Z,1.90
2022-10-26T15:51:47.994Z,2.08
2022-10-26T15:54:14.744Z,2.13
2022-10-26T15:56:42.073Z,2.30
2022-10-26T15:59:17.410Z,2.05
2022-10-26T16:01:44.324Z,2.03
2022-10-26T16:04:11.693Z,2.00
2022-10-26T16:06:40.334Z,2.22
2022-10-26T16:09:11.073Z,2.27
2022-10-26T16:11:37.489Z,2.50
2022-10-26T16:14:04.200Z,2.35
2022-10-26T16:16:31.389Z,3.60
2022-10-26T16:19:18.500Z,2.83
2022-10-26T16:21:44.206Z,2.60
2022-10-26T16:24:11.758Z,2.63
2022-10-26T16:26:38.230Z,2.85
2022-10-26T16:29:04.685Z,3.00
2022-10-26T16:31:31.080Z,2.80
2022-10-26T16:34:00.296Z,2.87
2022-10-26T16:36:30.524Z,3.00
2022-10-26T16:38:57.015Z,2.60
2022-10-26T16:43:56.009Z,2.78
2022-10-26T16:46:22.502Z,2.80
2022-10-26T16:48:50.060Z,2.88
2022-10-26T16:51:25.129Z,2.70
2022-10-26T16:53:53.382Z,3.03
2022-10-26T16:56:22.015Z,3.22
2022-10-26T16:58:48.810Z,3.30
2022-10-26T17:01:17.425Z,3.75
2022-10-26T17:03:44.769Z,3.58
2022-10-26T17:06:11.515Z,4.40
2022-10-26T17:08:37.948Z,4.07
2022-10-26T17:11:13.422Z,4.20
2022-10-26T17:13:40.647Z,3.72
2022-10-26T17:16:18.511Z,4.28
2022-10-26T17:18:45.869Z,4.05
2022-10-26T17:21:13.536Z,4.13
2022-10-26T17:23:40.027Z,4.00
2022-10-26T17:26:08.591Z,4.10
2022-10-26T17:28:35.330Z,4.55
2022-10-26T17:31:06.571Z,3.95
2022-10-26T17:33:34.935Z,3.70
2022-10-26T17:36:02.676Z,3.90
2022-10-26T17:38:33.933Z,4.15
2022-10-26T17:41:01.495Z,4.13
2022-10-26T17:43:33.588Z,4.00
2022-10-26T17:46:01.562Z,3.60
2022-10-26T17:48:28.899Z,3.63
2022-10-26T17:50:57.861Z,3.35
2022-10-26T17:53:24.583Z,2.97
2022-10-26T17:55:59.272Z,3.35
2022-10-26T17:58:25.681Z,3.08
2022-10-26T18:00:52.120Z,3.13
2022-10-26T18:03:18.583Z,3.28
2022-10-26T18:05:51.596Z,3.10
2022-10-26T18:08:18.444Z,3.40
2022-10-26T18:10:53.427Z,3.63
2022-10-26T18:13:19.844Z,3.90
2022-10-26T18:15:46.313Z,3.72
2022-10-26T18:18:13.436Z,3.88
2022-10-26T18:20:40.131Z,4.10
2022-10-26T18:23:06.698Z,3.97
2022-10-26T18:25:33.284Z,4.40
2022-10-26T18:27:59.756Z,4.00
2022-10-26T18:30:26.187Z,4.10
2022-10-26T18:32:53.096Z,4.47
2022-10-26T18:35:20.118Z,4.60
2022-10-26T18:37:46.552Z,5.40
2022-10-26T18:40:13.298Z,5.28
2022-10-26T18:42:39.679Z,5.18
2022-10-26T18:45:06.552Z,4.75
2022-10-26T18:47:33.416Z,5.00
2022-10-26T18:49:59.813Z,5.43
2022-10-26T18:52:26.216Z,5.80
2022-10-26T18:54:54.078Z,6.40
2022-10-26T18:57:21.141Z,6.70
2022-10-26T18:59:51.436Z,6.20
2022-10-26T19:02:20.396Z,6.97
2022-10-26T19:04:46.783Z,6.63
2022-10-26T19:07:13.191Z,6.15
2022-10-26T19:09:39.579Z,6.90
2022-10-26T19:12:06.173Z,6.60
2022-10-26T19:14:32.556Z,8.20
2022-10-26T19:16:58.955Z,8.10
2022-10-26T19:19:25.381Z,9.02
2022-10-26T19:21:51.830Z,7.88
2022-10-26T19:24:20.651Z,7.40
2022-10-26T19:26:48.035Z,7.20
2022-10-26T19:29:16.625Z,6.78
2022-10-26T19:31:47.336Z,7.07
2022-10-26T19:34:15.184Z,7.30
2022-10-26T19:36:42.261Z,6.40
2022-10-26T19:39:08.648Z,7.03
2022-10-26T19:41:35.062Z,7.30
2022-10-26T19:44:01.556Z,9.68
2022-10-26T19:46:29.675Z,10.60
2022-10-26T19:48:58.407Z,8.90
2022-10-26T19:51:26.201Z,7.37
2022-10-26T19:53:53.078Z,8.23
2022-10-26T19:56:19.601Z,7.82
2022-10-26T19:58:46.509Z,7.93
2022-10-26T20:01:14.707Z,6.65
2022-10-26T20:03:41.430Z,6.77
2022-10-26T20:06:10.925Z,6.82
2022-10-26T20:08:38.615Z,7.38
2022-10-26T20:11:10.171Z,6.47
2022-10-26T20:13:40.336Z,7.13
2022-10-26T20:16:07.911Z,7.40
2022-10-26T20:18:34.677Z,6.88
2022-10-26T20:21:01.262Z,6.38
2022-10-26T20:23:27.696Z,5.45
2022-10-26T20:25:54.112Z,4.97
2022-10-26T20:28:20.508Z,4.60
2022-10-26T20:30:48.456Z,4.90
2022-10-26T20:33:15.020Z,4.80
2022-10-26T20:35:41.417Z,5.10
2022-10-26T20:38:15.235Z,4.75
2022-10-26T20:40:41.894Z,4.73
2022-10-26T20:43:10.471Z,4.47
2022-10-26T20:45:37.230Z,4.72
2022-10-26T20:48:03.989Z,4.53
2022-10-26T20:50:31.037Z,4.47
2022-10-26T20:53:11.511Z,4.70
2022-10-26T20:55:42.794Z,4.40
2022-10-26T20:58:20.434Z,5.25
2022-10-26T21:01:06.679Z,4.70
2022-10-26T21:03:33.654Z,5.40
2022-10-26T21:06:00.058Z,4.73
2022-10-26T21:08:26.473Z,4.63
2022-10-26T21:10:53.125Z,4.75
2022-10-26T21:13:19.547Z,4.25
2022-10-26T21:15:45.985Z,4.50
2022-10-26T21:18:12.500Z,4.40
2022-10-26T21:20:38.958Z,4.90
2022-10-26T21:23:05.359Z,5.05
2022-10-26T21:25:31.742Z,4.53
2022-10-26T21:27:58.675Z,4.75
2022-10-26T21:30:25.548Z,4.60
2022-10-26T21:32:53.140Z,4.20
2022-10-26T21:35:20.846Z,4.90
2022-10-26T21:37:48.102Z,4.55
2022-10-26T21:40:14.813Z,4.32
2022-10-26T21:42:41.260Z,4.30
2022-10-26T21:45:08.249Z,3.85
2022-10-26T21:47:34.638Z,4.63
2022-10-26T21:50:01.072Z,4.07
2022-10-26T21:52:27.513Z,4.60
2022-10-26T21:54:53.886Z,4.30
2022-10-26T21:57:20.237Z,4.60
2022-10-26T21:59:46.676Z,4.57
2022-10-26T22:02:13.158Z,4.18
2022-10-26T22:04:39.661Z,4.20
2022-10-26T22:07:06.064Z,3.97
2022-10-26T22:09:37.356Z,3.90
2022-10-26T22:12:11.476Z,3.40
2022-10-26T22:14:37.918Z,3.50
2022-10-26T22:17:04.410Z,3.50
2022-10-26T22:19:30.890Z,3.47
2022-10-26T22:21:57.299Z,3.63
2022-10-26T22:24:23.710Z,3.42
2022-10-26T22:26:50.109Z,3.60
2022-10-26T22:29:16.545Z,3.78
2022-10-26T22:31:42.937Z,3.40
2022-10-26T22:34:14.901Z,3.47
2022-10-26T22:36:41.357Z,3.70
2022-10-26T22:39:07.812Z,3.60
2022-10-26T22:41:34.232Z,3.38
2022-10-26T22:44:00.653Z,3.73
2022-10-26T22:46:28.194Z,3.90
2022-10-26T22:48:56.350Z,3.47
2022-10-26T22:51:24.414Z,3.78
2022-10-26T22:53:55.040Z,3.80
2022-10-26T22:56:22.808Z,3.90
2022-10-26T22:58:49.619Z,4.15
2022-10-26T23:01:18.225Z,4.18
2022-10-26T23:03:44.815Z,4.28
2022-10-26T23:06:16.535Z,4.53
2022-10-26T23:08:43.299Z,4.77
2022-10-26T23:11:12.702Z,4.03
2022-10-26T23:13:39.094Z,4.38
2022-10-26T23:16:06.584Z,4.53
2022-10-26T23:18:33.584Z,4.22
2022-10-26T23:21:00.323Z,4.30
2022-10-26T23:23:27.705Z,4.47
2022-10-26T23:25:54.152Z,4.28
2022-10-26T23:28:20.503Z,4.90
2022-10-26T23:30:47.465Z,4.75
2022-10-26T23:33:14.213Z,4.73
2022-10-26T23:35:40.693Z,4.38
2022-10-26T23:40:34.414Z,4.90
2022-10-26T23:43:00.943Z,4.68
2022-10-26T23:45:27.354Z,4.73
2022-10-26T23:47:53.805Z,4.80
2022-10-26T23:50:20.354Z,4.50
2022-10-26T23:52:48.198Z,5.25
2022-10-26T23:55:16.617Z,4.80
2022-10-26T23:57:43.041Z,4.60
